INDIA METEOROLOGICAL DEPARTMENT, R.M.C. NEW DELHI
Dated:16-11-2018
METARS


Ahmedabad  
VAAH 161630Z 00000KT 4000 FU NSC 23/13 Q1014 NOSIG=
Amritsar   
VIAR 161630Z 00000KT 3000 BR NSC 14/12 Q1014 NOSIG=
Aurangabad 
VAAU 161500Z 00000KT 5000 HZ NSC 24/12 Q1016 NOSIG=
Bangalore  
VOBL 161630Z 05003KT 6000 SCT012 SCT080 20/20 Q1018 NOSIG=
Baroda     
VABO 161530Z 07003KT 6000 NSC 26/15 Q1013 NOSIG=
Bhopal     
VABP 161500Z 36004KT 5000 HZ NSC 19/12 Q1016 NOSIG=
Bhubaneswar
VEBS 161630Z 23002KT 4000 HZ NSC 22/19 Q1013 NOSIG=
Chennai    
VOMM 161630Z 20004KT 4000 VCSH SCT018 FEW025TCU 28/25 Q1013 NOSIG=
Coimbatore 
VOCB 161630Z VRB03KT 3500 BR SCT012 BKN080 23/22 Q1014 NOSIG=
Colombo    
VCBI 161640Z VRB02KT 8000 FEW018 26/24 Q1012 NOSIG=
Delhi      
VIDP 161630Z 29010KT 3500 HZ NSC 18/11 Q1014 NOSIG=
Gauhati    
VEGT 161630Z 00000KT 2500 BR FEW018 SCT100 20/19 Q1011 NOSIG=
Gaya       
VEGY 161630Z NIL=
Goa        
VOGO 161630Z 02007KT 6000 FEW100 29/24 Q1010 NOSIG=
Hyderabad  
VOHS 161630Z 13006KT 6000 FEW020 SCT100 25/24 Q1017 NOSIG=
Indore     
VAID 161500Z 05006KT 5000 HZ NSC 23/13 Q1016 NOSIG=
Jaipur     
VIJP 161630Z VRB02KT 2000 HZ NSC 21/05 Q1015 NOSIG=
Kochi      
VOCI 161630Z 08006KT 3500 BR FEW010 SCT015 FEW025CB OVC080 24/22 Q1010 NOSIG=
Kolkata    
VECC 161630Z 18004KT 2600 HZ NSC 25/19 Q1012 NOSIG=
Kozhikode  
VOCL 161630Z 16002KT 4000 BR FEW008 SCT015 FEW025CB BKN080 27/22 Q1009 NOSIG=
Lucknow    
VILK 161630Z VRB02KT 2500 HZ NSC 20/12 Q1013 NOSIG=
Madurai    
VOMD 161630Z 00000KT 3000 BR FEW016 BKN090 25/23 Q1013 NOSIG=
Mumbai     
VABB 161630Z 33003KT 3000 FU NSC 29/19 Q1012 NOSIG=
Nagpur     
VANP 161630Z 00000KT 3000 HZ NSC 24/14 Q1015 NOSIG=
Patna      
VEPT 161630Z 00000KT 3000 HZ NSC 20/14 Q1012 NOSIG=
Raipur     
VERP 161500Z 19003KT 6000 NSC 25/13 Q1014 NOSIG=
Ranchi     
VERC 161630Z 00000KT 4000 HZ FEW020 19/13 Q1016 NOSIG=
Trichy     
VOTR 161630Z 08003KT 3000 BR FEW016 SCT100 25/24 Q1011 NOSIG=
Trivandrum 
VOTV 161630Z 11003KT 4000 HZ SCT012 FEW025CB BKN080 26/24 Q1010 NOSIG=
Udaipur    
VAUD 161500Z 00000KT 4000 HZ NSC 19/12 Q1016 NOSIG=
Varanasi   
VEBN 161630Z 24005KT 2500 HZ NSC 20/15 Q1012 NOSIG=
Vizag      
VOVZ 161600Z VRB02KT 5000 BR FEW018 BKN090 27/23 Q1013 NOSIG =
Male       
VRMM 161600Z 26009KT 9999 FEW018 SCT280 29/23 Q1011 NOSIG=
Gan        
VRMG 161600Z 29004KT 9999 SCT017TCU SCT260 28/25 Q1012 NOSIG=
Kathmandu  
VNKT 161630Z NIL=
Dhaka      
VGHS 161630Z 00000KT 3100 HZ NSC 23/18 Q1013 TEMPO S/VIS 2500M=
Colombo    
VCBI 161640Z VRB02KT 8000 FEW018 26/24 Q1012 NOSIG=
Karachi    
OPKC 161625Z 27010KT 5000 HZ NSC 25/19 Q1015 NOSIG=
Lahore     
OPLA 161625Z NIL=
Leh        
VILH 161530Z 28004KT 6000 FEW070 00/-2 Q1024 NOSIG=
Sri Nagar  
VISR 161530Z 23004KT 5000 FU FEW030 05/01 Q1023 NOSIG=
Jammu      
VIJU 161530Z VRB02KT 6000 SKC 16/10 Q1013 NOSIG=
Jodhpur    
VIJO 161530Z VRB01KT 5000 FU SKC 21/10 Q1015 NOSIG=
Jaisalmer  
VIJR 161530Z 00000KT 6000 SKC 22/00 Q1015 NOSIG=
Bhuj-Rudra 
VABJ 161530Z 00000KT 6000 SKC 22/04 Q1015 NOSIG=
Gorakhpur  
VEGK 161530Z VRB01KT 5000 HZ SKC 16/11 Q1011 NOSIG=
Allahabad  
VIAL 161530Z VRB02KT 5000 HZ SKC 19/11 Q1013 NOSIG=
Agra       
VIAG 161530Z 00000KT 5000 BR SKC 15/11 Q1014 NOSIG=
Bagdogra   
VEBD 161530Z VRB01KT 1500 BR FEW025 17/17 Q1012 TEMPO 1000M=
Gwalior    
VIGR 161530Z VRB02KT 4500 HZ SKC 16/11 Q1014 NOSIG=
Pune       
VAPO 161630Z 29002KT 6000 NSC 21/08 Q1017 NOSIG=
Chandigarh 
VICG 161530Z 35003KT 6000 FEW250 16/10 Q1014 NOSIG=
Jamnagar   
VAJM 161530Z VRB01KT 6000 SKC 26/16 Q1014 NOSIG=